sensor_id;sensor_type;location;lat;lon;timestamp;P1;durP1;ratioP1;P2;durP2;ratioP2
20140;SDS011;10231;47.702;9.826;2023-03-22T00:02:24;7.70;;;6.33;;
20140;SDS011;10231;47.702;9.826;2023-03-22T00:04:50;8.53;;;7.30;;
20140;SDS011;10231;47.702;9.826;2023-03-22T00:07:16;7.23;;;6.50;;
20140;SDS011;10231;47.702;9.826;2023-03-22T00:09:42;8.00;;;6.60;;
20140;SDS011;10231;47.702;9.826;2023-03-22T00:12:07;6.43;;;5.93;;
20140;SDS011;10231;47.702;9.826;2023-03-22T00:14:33;6.30;;;5.70;;
20140;SDS011;10231;47.702;9.826;2023-03-22T00:16:59;7.87;;;6.60;;
20140;SDS011;10231;47.702;9.826;2023-03-22T00:19:25;7.53;;;5.97;;
20140;SDS011;10231;47.702;9.826;2023-03-22T00:21:53;6.70;;;5.90;;
20140;SDS011;10231;47.702;9.826;2023-03-22T00:24:19;6.67;;;6.07;;
20140;SDS011;10231;47.702;9.826;2023-03-22T00:26:45;6.73;;;5.90;;
20140;SDS011;10231;47.702;9.826;2023-03-22T00:29:11;7.33;;;6.63;;
20140;SDS011;10231;47.702;9.826;2023-03-22T00:31:37;8.53;;;6.10;;
20140;SDS011;10231;47.702;9.826;2023-03-22T00:34:02;8.27;;;6.07;;
20140;SDS011;10231;47.702;9.826;2023-03-22T00:36:28;7.07;;;6.00;;
20140;SDS011;10231;47.702;9.826;2023-03-22T00:38:53;9.27;;;6.80;;
20140;SDS011;10231;47.702;9.826;2023-03-22T00:41:20;8.53;;;5.97;;
20140;SDS011;10231;47.702;9.826;2023-03-22T00:43:47;7.43;;;6.60;;
20140;SDS011;10231;47.702;9.826;2023-03-22T00:46:14;8.67;;;6.53;;
20140;SDS011;10231;47.702;9.826;2023-03-22T00:48:41;7.07;;;6.37;;
20140;SDS011;10231;47.702;9.826;2023-03-22T00:51:07;9.50;;;5.93;;
20140;SDS011;10231;47.702;9.826;2023-03-22T00:53:33;6.13;;;5.50;;
20140;SDS011;10231;47.702;9.826;2023-03-22T00:56:00;7.77;;;6.17;;
20140;SDS011;10231;47.702;9.826;2023-03-22T00:58:26;7.33;;;6.73;;
20140;SDS011;10231;47.702;9.826;2023-03-22T01:00:51;7.80;;;6.23;;
20140;SDS011;10231;47.702;9.826;2023-03-22T01:03:17;6.40;;;5.90;;
20140;SDS011;10231;47.702;9.826;2023-03-22T01:05:43;7.93;;;6.13;;
20140;SDS011;10231;47.702;9.826;2023-03-22T01:08:10;7.83;;;6.03;;
20140;SDS011;10231;47.702;9.826;2023-03-22T01:10:37;6.70;;;6.00;;
20140;SDS011;10231;47.702;9.826;2023-03-22T01:13:03;6.80;;;6.20;;
20140;SDS011;10231;47.702;9.826;2023-03-22T01:15:30;6.50;;;5.90;;
20140;SDS011;10231;47.702;9.826;2023-03-22T01:17:55;6.63;;;6.13;;
20140;SDS011;10231;47.702;9.826;2023-03-22T01:20:21;6.47;;;5.67;;
20140;SDS011;10231;47.702;9.826;2023-03-22T01:22:47;6.37;;;5.77;;
20140;SDS011;10231;47.702;9.826;2023-03-22T01:25:13;6.40;;;5.80;;
20140;SDS011;10231;47.702;9.826;2023-03-22T01:27:39;7.17;;;6.40;;
20140;SDS011;10231;47.702;9.826;2023-03-22T01:30:05;5.90;;;5.40;;
20140;SDS011;10231;47.702;9.826;2023-03-22T01:32:31;5.90;;;5.20;;
20140;SDS011;10231;47.702;9.826;2023-03-22T01:34:57;6.07;;;5.33;;
20140;SDS011;10231;47.702;9.826;2023-03-22T01:37:22;6.43;;;5.03;;
20140;SDS011;10231;47.702;9.826;2023-03-22T01:39:51;6.27;;;5.67;;
20140;SDS011;10231;47.702;9.826;2023-03-22T01:42:20;5.80;;;5.30;;
20140;SDS011;10231;47.702;9.826;2023-03-22T01:47:37;7.83;;;4.83;;
20140;SDS011;10231;47.702;9.826;2023-03-22T01:50:09;5.70;;;5.20;;
20140;SDS011;10231;47.702;9.826;2023-03-22T01:52:34;5.97;;;5.47;;
20140;SDS011;10231;47.702;9.826;2023-03-22T01:55:02;6.13;;;5.33;;
20140;SDS011;10231;47.702;9.826;2023-03-22T01:57:30;6.23;;;5.43;;
20140;SDS011;10231;47.702;9.826;2023-03-22T01:59:57;5.90;;;5.33;;
20140;SDS011;10231;47.702;9.826;2023-03-22T02:02:24;7.27;;;5.53;;
20140;SDS011;10231;47.702;9.826;2023-03-22T02:04:54;5.90;;;5.23;;
20140;SDS011;10231;47.702;9.826;2023-03-22T02:07:21;7.10;;;6.40;;
20140;SDS011;10231;47.702;9.826;2023-03-22T02:09:54;5.47;;;5.03;;
20140;SDS011;10231;47.702;9.826;2023-03-22T02:29:12;6.10;;;5.60;;
20140;SDS011;10231;47.702;9.826;2023-03-22T02:32:12;5.23;;;4.77;;
20140;SDS011;10231;47.702;9.826;2023-03-22T02:40:30;7.70;;;5.40;;
20140;SDS011;10231;47.702;9.826;2023-03-22T02:43:05;5.30;;;4.80;;
20140;SDS011;10231;47.702;9.826;2023-03-22T02:51:23;5.93;;;5.00;;
20140;SDS011;10231;47.702;9.826;2023-03-22T02:56:55;5.57;;;5.07;;
20140;SDS011;10231;47.702;9.826;2023-03-22T02:59:27;5.40;;;4.87;;
20140;SDS011;10231;47.702;9.826;2023-03-22T03:01:56;7.57;;;5.33;;
20140;SDS011;10231;47.702;9.826;2023-03-22T03:04:25;5.90;;;5.30;;
20140;SDS011;10231;47.702;9.826;2023-03-22T03:06:58;6.93;;;5.77;;
20140;SDS011;10231;47.702;9.826;2023-03-22T03:09:29;5.20;;;4.67;;
20140;SDS011;10231;47.702;9.826;2023-03-22T03:11:57;5.10;;;4.60;;
20140;SDS011;10231;47.702;9.826;2023-03-22T03:14:23;5.20;;;4.70;;
20140;SDS011;10231;47.702;9.826;2023-03-22T03:17:12;4.63;;;4.23;;
20140;SDS011;10231;47.702;9.826;2023-03-22T03:28:11;5.43;;;4.87;;
20140;SDS011;10231;47.702;9.826;2023-03-22T03:31:12;4.87;;;4.37;;
20140;SDS011;10231;47.702;9.826;2023-03-22T03:33:54;5.33;;;4.83;;
20140;SDS011;10231;47.702;9.826;2023-03-22T03:36:26;6.10;;;4.77;;
20140;SDS011;10231;47.702;9.826;2023-03-22T03:38:53;5.00;;;4.60;;
20140;SDS011;10231;47.702;9.826;2023-03-22T03:41:22;5.77;;;5.27;;
20140;SDS011;10231;47.702;9.826;2023-03-22T03:43:51;5.07;;;4.57;;
20140;SDS011;10231;47.702;9.826;2023-03-22T03:46:18;4.60;;;4.20;;
20140;SDS011;10231;47.702;9.826;2023-03-22T03:48:45;4.63;;;4.23;;
20140;SDS011;10231;47.702;9.826;2023-03-22T03:51:13;6.03;;;4.60;;
20140;SDS011;10231;47.702;9.826;2023-03-22T03:53:39;6.50;;;4.93;;
20140;SDS011;10231;47.702;9.826;2023-03-22T03:56:05;5.53;;;4.97;;
20140;SDS011;10231;47.702;9.826;2023-03-22T03:58:31;6.03;;;4.40;;
20140;SDS011;10231;47.702;9.826;2023-03-22T04:00:56;6.07;;;4.50;;
20140;SDS011;10231;47.702;9.826;2023-03-22T04:03:22;5.63;;;4.53;;
20140;SDS011;10231;47.702;9.826;2023-03-22T04:05:48;4.57;;;4.23;;
20140;SDS011;10231;47.702;9.826;2023-03-22T04:08:14;5.87;;;4.30;;
20140;SDS011;10231;47.702;9.826;2023-03-22T04:10:40;5.90;;;4.90;;
20140;SDS011;10231;47.702;9.826;2023-03-22T04:13:05;4.80;;;4.27;;
20140;SDS011;10231;47.702;9.826;2023-03-22T04:15:31;5.10;;;4.47;;
20140;SDS011;10231;47.702;9.826;2023-03-22T04:18:00;6.00;;;4.83;;
20140;SDS011;10231;47.702;9.826;2023-03-22T04:20:25;4.73;;;4.30;;
20140;SDS011;10231;47.702;9.826;2023-03-22T04:22:51;5.10;;;4.60;;
20140;SDS011;10231;47.702;9.826;2023-03-22T04:25:16;6.30;;;4.80;;
20140;SDS011;10231;47.702;9.826;2023-03-22T04:27:43;5.03;;;4.60;;
20140;SDS011;10231;47.702;9.826;2023-03-22T04:30:12;5.33;;;4.83;;
20140;SDS011;10231;47.702;9.826;2023-03-22T04:32:47;4.83;;;4.43;;
20140;SDS011;10231;47.702;9.826;2023-03-22T04:35:13;5.43;;;4.63;;
20140;SDS011;10231;47.702;9.826;2023-03-22T04:37:39;5.47;;;4.77;;
20140;SDS011;10231;47.702;9.826;2023-03-22T04:40:07;5.07;;;4.47;;
20140;SDS011;10231;47.702;9.826;2023-03-22T04:42:33;5.43;;;4.83;;
20140;SDS011;10231;47.702;9.826;2023-03-22T04:44:59;4.70;;;4.30;;
20140;SDS011;10231;47.702;9.826;2023-03-22T04:47:27;4.37;;;4.00;;
20140;SDS011;10231;47.702;9.826;2023-03-22T04:49:53;4.90;;;4.40;;
20140;SDS011;10231;47.702;9.826;2023-03-22T04:52:18;4.80;;;4.33;;
20140;SDS011;10231;47.702;9.826;2023-03-22T04:54:44;4.30;;;4.00;;
20140;SDS011;10231;47.702;9.826;2023-03-22T04:57:10;5.27;;;4.20;;
20140;SDS011;10231;47.702;9.826;2023-03-22T04:59:35;5.10;;;4.60;;
20140;SDS011;10231;47.702;9.826;2023-03-22T05:02:01;4.40;;;4.10;;
20140;SDS011;10231;47.702;9.826;2023-03-22T05:04:27;8.10;;;4.30;;
20140;SDS011;10231;47.702;9.826;2023-03-22T05:06:52;4.70;;;4.20;;
20140;SDS011;10231;47.702;9.826;2023-03-22T05:09:18;5.07;;;4.57;;
20140;SDS011;10231;47.702;9.826;2023-03-22T05:11:44;5.10;;;4.60;;
20140;SDS011;10231;47.702;9.826;2023-03-22T05:14:09;5.20;;;4.37;;
20140;SDS011;10231;47.702;9.826;2023-03-22T05:16:35;5.80;;;4.70;;
20140;SDS011;10231;47.702;9.826;2023-03-22T05:19:04;6.13;;;3.90;;
20140;SDS011;10231;47.702;9.826;2023-03-22T05:21:37;4.30;;;3.97;;
20140;SDS011;10231;47.702;9.826;2023-03-22T05:24:05;5.17;;;4.67;;
20140;SDS011;10231;47.702;9.826;2023-03-22T05:26:31;5.33;;;4.10;;
20140;SDS011;10231;47.702;9.826;2023-03-22T05:28:57;4.23;;;3.93;;
20140;SDS011;10231;47.702;9.826;2023-03-22T05:31:23;4.77;;;4.37;;
20140;SDS011;10231;47.702;9.826;2023-03-22T05:33:49;4.77;;;4.43;;
20140;SDS011;10231;47.702;9.826;2023-03-22T05:36:16;6.90;;;4.70;;
20140;SDS011;10231;47.702;9.826;2023-03-22T05:38:43;5.03;;;4.07;;
20140;SDS011;10231;47.702;9.826;2023-03-22T05:41:10;4.77;;;4.10;;
20140;SDS011;10231;47.702;9.826;2023-03-22T05:43:37;4.63;;;4.20;;
20140;SDS011;10231;47.702;9.826;2023-03-22T05:46:06;4.13;;;3.83;;
20140;SDS011;10231;47.702;9.826;2023-03-22T05:48:33;8.37;;;4.70;;
20140;SDS011;10231;47.702;9.826;2023-03-22T05:51:00;5.03;;;4.33;;
20140;SDS011;10231;47.702;9.826;2023-03-22T05:53:27;5.17;;;4.67;;
20140;SDS011;10231;47.702;9.826;2023-03-22T05:55:53;5.03;;;4.17;;
20140;SDS011;10231;47.702;9.826;2023-03-22T05:58:21;7.87;;;4.53;;
20140;SDS011;10231;47.702;9.826;2023-03-22T06:00:48;5.00;;;4.50;;
20140;SDS011;10231;47.702;9.826;2023-03-22T06:03:15;7.30;;;4.33;;
20140;SDS011;10231;47.702;9.826;2023-03-22T06:05:42;4.60;;;4.20;;
20140;SDS011;10231;47.702;9.826;2023-03-22T06:08:07;5.90;;;4.00;;
20140;SDS011;10231;47.702;9.826;2023-03-22T06:10:33;7.60;;;5.33;;
20140;SDS011;10231;47.702;9.826;2023-03-22T06:12:58;4.90;;;4.30;;
20140;SDS011;10231;47.702;9.826;2023-03-22T06:15:24;5.03;;;4.43;;
20140;SDS011;10231;47.702;9.826;2023-03-22T06:17:49;4.50;;;3.97;;
20140;SDS011;10231;47.702;9.826;2023-03-22T06:20:15;6.20;;;4.33;;
20140;SDS011;10231;47.702;9.826;2023-03-22T06:22:41;5.87;;;4.90;;
20140;SDS011;10231;47.702;9.826;2023-03-22T06:25:07;5.63;;;4.80;;
20140;SDS011;10231;47.702;9.826;2023-03-22T06:27:33;5.27;;;4.60;;
20140;SDS011;10231;47.702;9.826;2023-03-22T06:29:59;4.47;;;4.07;;
20140;SDS011;10231;47.702;9.826;2023-03-22T06:32:25;5.27;;;4.80;;
20140;SDS011;10231;47.702;9.826;2023-03-22T06:34:54;6.37;;;4.83;;
20140;SDS011;10231;47.702;9.826;2023-03-22T06:37:20;5.93;;;4.60;;
20140;SDS011;10231;47.702;9.826;2023-03-22T06:39:47;5.13;;;4.20;;
20140;SDS011;10231;47.702;9.826;2023-03-22T06:42:13;5.47;;;4.53;;
20140;SDS011;10231;47.702;9.826;2023-03-22T06:44:38;5.77;;;4.63;;
20140;SDS011;10231;47.702;9.826;2023-03-22T06:47:07;4.97;;;4.43;;
20140;SDS011;10231;47.702;9.826;2023-03-22T06:49:33;6.93;;;4.43;;
20140;SDS011;10231;47.702;9.826;2023-03-22T06:51:59;7.43;;;4.90;;
20140;SDS011;10231;47.702;9.826;2023-03-22T06:54:25;4.97;;;4.17;;
20140;SDS011;10231;47.702;9.826;2023-03-22T06:56:50;5.53;;;4.37;;
20140;SDS011;10231;47.702;9.826;2023-03-22T06:59:16;5.03;;;4.23;;
20140;SDS011;10231;47.702;9.826;2023-03-22T07:01:41;5.57;;;4.47;;
20140;SDS011;10231;47.702;9.826;2023-03-22T07:04:07;6.10;;;4.23;;
20140;SDS011;10231;47.702;9.826;2023-03-22T07:06:32;5.50;;;4.17;;
20140;SDS011;10231;47.702;9.826;2023-03-22T07:08:58;6.23;;;4.27;;
20140;SDS011;10231;47.702;9.826;2023-03-22T07:11:24;5.60;;;4.00;;
20140;SDS011;10231;47.702;9.826;2023-03-22T07:13:51;5.03;;;4.33;;
20140;SDS011;10231;47.702;9.826;2023-03-22T07:16:18;7.63;;;4.53;;
20140;SDS011;10231;47.702;9.826;2023-03-22T07:18:44;6.00;;;4.70;;
20140;SDS011;10231;47.702;9.826;2023-03-22T07:21:10;5.00;;;4.60;;
20140;SDS011;10231;47.702;9.826;2023-03-22T07:23:36;5.47;;;4.27;;
20140;SDS011;10231;47.702;9.826;2023-03-22T07:26:01;5.13;;;4.60;;
20140;SDS011;10231;47.702;9.826;2023-03-22T07:28:27;4.93;;;4.43;;
20140;SDS011;10231;47.702;9.826;2023-03-22T07:31:03;4.17;;;3.33;;
20140;SDS011;10231;47.702;9.826;2023-03-22T07:33:31;4.00;;;3.60;;
20140;SDS011;10231;47.702;9.826;2023-03-22T07:35:57;3.43;;;3.10;;
20140;SDS011;10231;47.702;9.826;2023-03-22T07:38:22;3.70;;;3.37;;
20140;SDS011;10231;47.702;9.826;2023-03-22T07:40:50;3.40;;;3.10;;
20140;SDS011;10231;47.702;9.826;2023-03-22T07:43:18;6.03;;;3.30;;
20140;SDS011;10231;47.702;9.826;2023-03-22T07:45:44;5.80;;;3.03;;
20140;SDS011;10231;47.702;9.826;2023-03-22T07:48:12;3.30;;;3.00;;
20140;SDS011;10231;47.702;9.826;2023-03-22T07:50:38;3.90;;;3.20;;
20140;SDS011;10231;47.702;9.826;2023-03-22T07:53:04;3.70;;;2.90;;
20140;SDS011;10231;47.702;9.826;2023-03-22T07:55:29;5.27;;;2.93;;
20140;SDS011;10231;47.702;9.826;2023-03-22T07:57:55;2.67;;;2.47;;
20140;SDS011;10231;47.702;9.826;2023-03-22T08:00:21;2.73;;;2.53;;
20140;SDS011;10231;47.702;9.826;2023-03-22T08:02:47;4.23;;;3.20;;
20140;SDS011;10231;47.702;9.826;2023-03-22T08:05:12;4.37;;;3.10;;
20140;SDS011;10231;47.702;9.826;2023-03-22T08:07:38;3.10;;;2.83;;
20140;SDS011;10231;47.702;9.826;2023-03-22T08:10:03;3.40;;;3.10;;
20140;SDS011;10231;47.702;9.826;2023-03-22T08:12:29;5.20;;;2.87;;
20140;SDS011;10231;47.702;9.826;2023-03-22T08:14:56;4.20;;;3.13;;
20140;SDS011;10231;47.702;9.826;2023-03-22T08:17:22;4.80;;;3.00;;
20140;SDS011;10231;47.702;9.826;2023-03-22T08:19:49;2.80;;;2.60;;
20140;SDS011;10231;47.702;9.826;2023-03-22T08:22:14;4.77;;;3.27;;
20140;SDS011;10231;47.702;9.826;2023-03-22T08:24:40;5.67;;;3.73;;
20140;SDS011;10231;47.702;9.826;2023-03-22T08:27:06;2.93;;;2.57;;
20140;SDS011;10231;47.702;9.826;2023-03-22T08:29:31;3.33;;;3.00;;
20140;SDS011;10231;47.702;9.826;2023-03-22T08:31:57;6.30;;;3.30;;
20140;SDS011;10231;47.702;9.826;2023-03-22T08:34:26;4.93;;;3.03;;
20140;SDS011;10231;47.702;9.826;2023-03-22T08:36:57;3.30;;;3.00;;
20140;SDS011;10231;47.702;9.826;2023-03-22T08:39:22;3.83;;;3.03;;
20140;SDS011;10231;47.702;9.826;2023-03-22T08:41:48;3.00;;;2.77;;
20140;SDS011;10231;47.702;9.826;2023-03-22T08:44:13;4.23;;;3.57;;
20140;SDS011;10231;47.702;9.826;2023-03-22T08:46:39;3.60;;;3.30;;
20140;SDS011;10231;47.702;9.826;2023-03-22T08:49:05;4.43;;;3.07;;
20140;SDS011;10231;47.702;9.826;2023-03-22T08:51:30;4.27;;;3.30;;
20140;SDS011;10231;47.702;9.826;2023-03-22T08:53:56;3.43;;;3.23;;
20140;SDS011;10231;47.702;9.826;2023-03-22T08:56:24;4.27;;;3.47;;
20140;SDS011;10231;47.702;9.826;2023-03-22T08:58:51;4.50;;;2.90;;
20140;SDS011;10231;47.702;9.826;2023-03-22T09:01:17;3.43;;;3.13;;
20140;SDS011;10231;47.702;9.826;2023-03-22T09:03:45;2.67;;;2.47;;
20140;SDS011;10231;47.702;9.826;2023-03-22T09:06:11;3.20;;;2.90;;
20140;SDS011;10231;47.702;9.826;2023-03-22T09:08:38;5.77;;;3.23;;
20140;SDS011;10231;47.702;9.826;2023-03-22T09:11:06;2.43;;;2.23;;
20140;SDS011;10231;47.702;9.826;2023-03-22T09:13:32;3.00;;;2.80;;
20140;SDS011;10231;47.702;9.826;2023-03-22T09:15:58;5.77;;;2.93;;
20140;SDS011;10231;47.702;9.826;2023-03-22T09:18:24;2.60;;;2.40;;
20140;SDS011;10231;47.702;9.826;2023-03-22T09:20:50;2.87;;;2.70;;
20140;SDS011;10231;47.702;9.826;2023-03-22T09:23:16;2.90;;;2.60;;
20140;SDS011;10231;47.702;9.826;2023-03-22T09:25:42;3.20;;;2.87;;
20140;SDS011;10231;47.702;9.826;2023-03-22T09:28:09;3.03;;;2.77;;
20140;SDS011;10231;47.702;9.826;2023-03-22T09:30:35;4.43;;;2.80;;
20140;SDS011;10231;47.702;9.826;2023-03-22T09:33:01;3.07;;;2.77;;
20140;SDS011;10231;47.702;9.826;2023-03-22T09:35:27;3.40;;;2.97;;
20140;SDS011;10231;47.702;9.826;2023-03-22T09:37:52;2.97;;;2.50;;
20140;SDS011;10231;47.702;9.826;2023-03-22T09:40:20;5.90;;;3.00;;
20140;SDS011;10231;47.702;9.826;2023-03-22T09:42:51;3.23;;;2.90;;
20140;SDS011;10231;47.702;9.826;2023-03-22T09:45:20;2.50;;;2.30;;
20140;SDS011;10231;47.702;9.826;2023-03-22T09:47:56;3.17;;;2.33;;
20140;SDS011;10231;47.702;9.826;2023-03-22T09:50:32;3.93;;;2.50;;
20140;SDS011;10231;47.702;9.826;2023-03-22T09:52:59;3.93;;;2.77;;
20140;SDS011;10231;47.702;9.826;2023-03-22T10:04:05;3.23;;;2.93;;
20140;SDS011;10231;47.702;9.826;2023-03-22T10:06:58;3.23;;;3.00;;
20140;SDS011;10231;47.702;9.826;2023-03-22T10:09:54;3.00;;;2.80;;
20140;SDS011;10231;47.702;9.826;2023-03-22T10:15:33;3.43;;;3.23;;
20140;SDS011;10231;47.702;9.826;2023-03-22T10:18:04;4.03;;;3.63;;
20140;SDS011;10231;47.702;9.826;2023-03-22T10:23:04;3.50;;;3.20;;
20140;SDS011;10231;47.702;9.826;2023-03-22T10:25:35;3.73;;;3.10;;
20140;SDS011;10231;47.702;9.826;2023-03-22T10:30:46;2.80;;;2.60;;
20140;SDS011;10231;47.702;9.826;2023-03-22T10:33:21;4.00;;;2.50;;
20140;SDS011;10231;47.702;9.826;2023-03-22T10:35:49;2.60;;;2.50;;
20140;SDS011;10231;47.702;9.826;2023-03-22T10:38:18;2.77;;;2.60;;
20140;SDS011;10231;47.702;9.826;2023-03-22T10:40:50;2.97;;;2.77;;
20140;SDS011;10231;47.702;9.826;2023-03-22T10:43:27;2.77;;;2.57;;
20140;SDS011;10231;47.702;9.826;2023-03-22T10:46:01;2.10;;;1.90;;
20140;SDS011;10231;47.702;9.826;2023-03-22T10:48:35;3.37;;;2.47;;
20140;SDS011;10231;47.702;9.826;2023-03-22T10:51:04;2.80;;;2.40;;
20140;SDS011;10231;47.702;9.826;2023-03-22T10:53:35;2.73;;;2.53;;
20140;SDS011;10231;47.702;9.826;2023-03-22T10:56:11;3.33;;;2.60;;
20140;SDS011;10231;47.702;9.826;2023-03-22T10:58:39;4.93;;;2.50;;
20140;SDS011;10231;47.702;9.826;2023-03-22T11:01:15;2.27;;;2.10;;
20140;SDS011;10231;47.702;9.826;2023-03-22T11:03:50;3.20;;;2.40;;
20140;SDS011;10231;47.702;9.826;2023-03-22T11:06:19;2.77;;;2.20;;
20140;SDS011;10231;47.702;9.826;2023-03-22T11:11:37;2.53;;;1.77;;
20140;SDS011;10231;47.702;9.826;2023-03-22T11:14:14;1.67;;;1.57;;
20140;SDS011;10231;47.702;9.826;2023-03-22T11:17:00;1.87;;;1.77;;
20140;SDS011;10231;47.702;9.826;2023-03-22T11:19:35;1.97;;;1.70;;
20140;SDS011;10231;47.702;9.826;2023-03-22T11:22:06;1.77;;;1.67;;
20140;SDS011;10231;47.702;9.826;2023-03-22T11:24:40;2.03;;;1.37;;
20140;SDS011;10231;47.702;9.826;2023-03-22T11:29:57;2.77;;;1.57;;
20140;SDS011;10231;47.702;9.826;2023-03-22T11:32:34;1.60;;;1.50;;
20140;SDS011;10231;47.702;9.826;2023-03-22T11:35:10;1.30;;;1.20;;
20140;SDS011;10231;47.702;9.826;2023-03-22T11:37:46;1.50;;;1.40;;
20140;SDS011;10231;47.702;9.826;2023-03-22T11:40:17;1.40;;;1.30;;
20140;SDS011;10231;47.702;9.826;2023-03-22T11:42:55;1.30;;;1.20;;
20140;SDS011;10231;47.702;9.826;2023-03-22T11:48:50;1.30;;;1.20;;
20140;SDS011;10231;47.702;9.826;2023-03-22T11:51:28;2.30;;;1.50;;
20140;SDS011;10231;47.702;9.826;2023-03-22T11:54:12;1.70;;;1.60;;
20140;SDS011;10231;47.702;9.826;2023-03-22T11:56:48;1.53;;;1.43;;
20140;SDS011;10231;47.702;9.826;2023-03-22T12:04:42;2.70;;;1.17;;
20140;SDS011;10231;47.702;9.826;2023-03-22T12:07:12;1.70;;;1.60;;
20140;SDS011;10231;47.702;9.826;2023-03-22T12:09:42;2.23;;;1.73;;
20140;SDS011;10231;47.702;9.826;2023-03-22T12:12:16;1.37;;;1.27;;
20140;SDS011;10231;47.702;9.826;2023-03-22T12:14:50;2.27;;;1.47;;
20140;SDS011;10231;47.702;9.826;2023-03-22T12:17:22;1.30;;;1.20;;
20140;SDS011;10231;47.702;9.826;2023-03-22T12:22:52;2.23;;;1.40;;
20140;SDS011;10231;47.702;9.826;2023-03-22T12:25:19;1.70;;;1.57;;
20140;SDS011;10231;47.702;9.826;2023-03-22T12:27:53;2.20;;;1.53;;
20140;SDS011;10231;47.702;9.826;2023-03-22T12:30:24;4.10;;;1.80;;
20140;SDS011;10231;47.702;9.826;2023-03-22T12:32:55;1.60;;;1.50;;
20140;SDS011;10231;47.702;9.826;2023-03-22T12:35:25;1.60;;;1.50;;
20140;SDS011;10231;47.702;9.826;2023-03-22T12:37:55;1.87;;;1.77;;
20140;SDS011;10231;47.702;9.826;2023-03-22T12:40:27;1.40;;;1.30;;
20140;SDS011;10231;47.702;9.826;2023-03-22T12:43:16;1.80;;;1.70;;
20140;SDS011;10231;47.702;9.826;2023-03-22T12:46:09;4.10;;;1.80;;
20140;SDS011;10231;47.702;9.826;2023-03-22T12:49:04;1.83;;;1.73;;
20140;SDS011;10231;47.702;9.826;2023-03-22T12:51:40;1.90;;;1.80;;
20140;SDS011;10231;47.702;9.826;2023-03-22T12:54:08;2.20;;;2.10;;
20140;SDS011;10231;47.702;9.826;2023-03-22T12:56:38;2.17;;;1.90;;
20140;SDS011;10231;47.702;9.826;2023-03-22T12:59:09;2.43;;;2.27;;
20140;SDS011;10231;47.702;9.826;2023-03-22T13:06:54;2.17;;;1.90;;
20140;SDS011;10231;47.702;9.826;2023-03-22T13:14:57;2.17;;;1.97;;
20140;SDS011;10231;47.702;9.826;2023-03-22T13:19:53;2.67;;;2.20;;
20140;SDS011;10231;47.702;9.826;2023-03-22T13:22:58;3.37;;;2.37;;
20140;SDS011;10231;47.702;9.826;2023-03-22T13:30:48;1.87;;;1.77;;
20140;SDS011;10231;47.702;9.826;2023-03-22T13:33:19;1.70;;;1.60;;
20140;SDS011;10231;47.702;9.826;2023-03-22T13:35:52;2.40;;;2.00;;
20140;SDS011;10231;47.702;9.826;2023-03-22T13:38:31;2.30;;;2.20;;
20140;SDS011;10231;47.702;9.826;2023-03-22T13:46:49;1.33;;;1.33;;
20140;SDS011;10231;47.702;9.826;2023-03-22T13:49:23;2.23;;;2.10;;
20140;SDS011;10231;47.702;9.826;2023-03-22T13:51:51;2.40;;;2.20;;
20140;SDS011;10231;47.702;9.826;2023-03-22T13:54:20;2.10;;;1.90;;
20140;SDS011;10231;47.702;9.826;2023-03-22T13:56:54;3.03;;;2.10;;
20140;SDS011;10231;47.702;9.826;2023-03-22T13:59:23;2.13;;;2.00;;
20140;SDS011;10231;47.702;9.826;2023-03-22T14:04:46;2.80;;;2.60;;
20140;SDS011;10231;47.702;9.826;2023-03-22T14:10:36;2.20;;;2.00;;
20140;SDS011;10231;47.702;9.826;2023-03-22T14:12:48;2.30;;;2.10;;
20140;SDS011;10231;47.702;9.826;2023-03-22T14:15:19;2.43;;;2.20;;
20140;SDS011;10231;47.702;9.826;2023-03-22T14:21:12;2.23;;;2.10;;
20140;SDS011;10231;47.702;9.826;2023-03-22T14:23:41;2.70;;;2.00;;
20140;SDS011;10231;47.702;9.826;2023-03-22T14:26:18;4.03;;;1.93;;
20140;SDS011;10231;47.702;9.826;2023-03-22T14:28:50;1.90;;;1.80;;
20140;SDS011;10231;47.702;9.826;2023-03-22T14:31:25;1.70;;;1.60;;
20140;SDS011;10231;47.702;9.826;2023-03-22T14:33:53;2.00;;;1.90;;
20140;SDS011;10231;47.702;9.826;2023-03-22T14:36:25;1.67;;;1.60;;
20140;SDS011;10231;47.702;9.826;2023-03-22T14:38:55;2.37;;;1.87;;
20140;SDS011;10231;47.702;9.826;2023-03-22T14:41:22;1.70;;;1.60;;
20140;SDS011;10231;47.702;9.826;2023-03-22T14:43:57;2.77;;;2.57;;
20140;SDS011;10231;47.702;9.826;2023-03-22T14:46:29;2.63;;;2.43;;
20140;SDS011;10231;47.702;9.826;2023-03-22T14:48:57;2.03;;;1.80;;
20140;SDS011;10231;47.702;9.826;2023-03-22T14:53:55;1.70;;;1.60;;
20140;SDS011;10231;47.702;9.826;2023-03-22T14:56:25;2.07;;;1.53;;
20140;SDS011;10231;47.702;9.826;2023-03-22T14:58:53;1.67;;;1.57;;
20140;SDS011;10231;47.702;9.826;2023-03-22T15:01:26;1.40;;;1.33;;
20140;SDS011;10231;47.702;9.826;2023-03-22T15:03:56;1.23;;;1.23;;
20140;SDS011;10231;47.702;9.826;2023-03-22T15:06:27;1.83;;;1.60;;
20140;SDS011;10231;47.702;9.826;2023-03-22T15:08:54;2.00;;;1.57;;
20140;SDS011;10231;47.702;9.826;2023-03-22T15:11:27;1.50;;;1.40;;
20140;SDS011;10231;47.702;9.826;2023-03-22T15:13:53;1.20;;;1.10;;
20140;SDS011;10231;47.702;9.826;2023-03-22T15:16:20;1.37;;;1.20;;
20140;SDS011;10231;47.702;9.826;2023-03-22T15:18:48;1.10;;;1.10;;
20140;SDS011;10231;47.702;9.826;2023-03-22T15:21:16;1.37;;;0.93;;
20140;SDS011;10231;47.702;9.826;2023-03-22T15:23:46;1.20;;;1.20;;
20140;SDS011;10231;47.702;9.826;2023-03-22T15:26:16;1.07;;;1.03;;
20140;SDS011;10231;47.702;9.826;2023-03-22T15:28:57;1.73;;;0.90;;
20140;SDS011;10231;47.702;9.826;2023-03-22T15:31:31;1.80;;;1.20;;
20140;SDS011;10231;47.702;9.826;2023-03-22T15:33:59;0.80;;;0.80;;
20140;SDS011;10231;47.702;9.826;2023-03-22T15:36:31;1.10;;;1.00;;
20140;SDS011;10231;47.702;9.826;2023-03-22T15:39:05;0.93;;;0.93;;
20140;SDS011;10231;47.702;9.826;2023-03-22T15:41:42;2.27;;;0.90;;
20140;SDS011;10231;47.702;9.826;2023-03-22T15:44:14;0.80;;;0.80;;
20140;SDS011;10231;47.702;9.826;2023-03-22T15:46:55;0.90;;;0.90;;
20140;SDS011;10231;47.702;9.826;2023-03-22T15:52:05;1.10;;;0.80;;
20140;SDS011;10231;47.702;9.826;2023-03-22T15:54:46;1.57;;;0.80;;
20140;SDS011;10231;47.702;9.826;2023-03-22T16:02:35;1.47;;;1.10;;
20140;SDS011;10231;47.702;9.826;2023-03-22T16:05:14;1.27;;;0.80;;
20140;SDS011;10231;47.702;9.826;2023-03-22T16:07:40;0.90;;;0.80;;
20140;SDS011;10231;47.702;9.826;2023-03-22T16:10:05;2.57;;;0.70;;
20140;SDS011;10231;47.702;9.826;2023-03-22T16:12:31;0.90;;;0.57;;
20140;SDS011;10231;47.702;9.826;2023-03-22T16:14:57;1.03;;;0.97;;
20140;SDS011;10231;47.702;9.826;2023-03-22T16:17:23;1.60;;;0.83;;
20140;SDS011;10231;47.702;9.826;2023-03-22T16:19:50;0.90;;;0.90;;
20140;SDS011;10231;47.702;9.826;2023-03-22T16:22:17;1.67;;;0.70;;
20140;SDS011;10231;47.702;9.826;2023-03-22T16:24:44;0.77;;;0.70;;
20140;SDS011;10231;47.702;9.826;2023-03-22T16:27:14;1.43;;;0.77;;
20140;SDS011;10231;47.702;9.826;2023-03-22T16:29:41;0.80;;;0.80;;
20140;SDS011;10231;47.702;9.826;2023-03-22T16:32:23;1.07;;;0.97;;
20140;SDS011;10231;47.702;9.826;2023-03-22T16:34:51;1.53;;;1.00;;
20140;SDS011;10231;47.702;9.826;2023-03-22T16:39:43;1.00;;;1.00;;
20140;SDS011;10231;47.702;9.826;2023-03-22T16:42:10;1.03;;;1.03;;
20140;SDS011;10231;47.702;9.826;2023-03-22T16:44:38;1.00;;;1.00;;
20140;SDS011;10231;47.702;9.826;2023-03-22T16:47:05;1.10;;;0.97;;
20140;SDS011;10231;47.702;9.826;2023-03-22T16:49:35;0.90;;;0.90;;
20140;SDS011;10231;47.702;9.826;2023-03-22T16:52:00;1.57;;;0.97;;
20140;SDS011;10231;47.702;9.826;2023-03-22T16:54:26;1.20;;;1.20;;
20140;SDS011;10231;47.702;9.826;2023-03-22T16:56:51;1.43;;;1.33;;
20140;SDS011;10231;47.702;9.826;2023-03-22T16:59:17;1.97;;;1.30;;
20140;SDS011;10231;47.702;9.826;2023-03-22T17:01:42;2.00;;;1.40;;
20140;SDS011;10231;47.702;9.826;2023-03-22T17:04:08;1.53;;;1.37;;